createdAt,value
2022-08-30T00:01:09.440Z,19.63
2022-08-30T00:04:19.761Z,19.67
2022-08-30T00:07:22.062Z,19.72
2022-08-30T00:10:25.180Z,19.74
2022-08-30T00:13:27.840Z,19.79
2022-08-30T00:16:30.427Z,19.87
2022-08-30T00:19:32.724Z,19.94
2022-08-30T00:22:35.327Z,19.98
2022-08-30T00:25:37.663Z,20.02
2022-08-30T00:28:40.231Z,20.00
2022-08-30T00:31:42.504Z,20.01
2022-08-30T00:34:45.127Z,20.05
2022-08-30T00:37:47.678Z,20.01
2022-08-30T00:40:51.158Z,20.05
2022-08-30T00:43:53.543Z,19.96
2022-08-30T00:46:56.337Z,19.90
2022-08-30T00:49:58.633Z,19.81
2022-08-30T00:53:02.010Z,19.73
2022-08-30T00:56:04.979Z,19.68
2022-08-30T00:59:08.359Z,19.63
2022-08-30T01:02:11.235Z,19.61
2022-08-30T01:05:16.167Z,19.58
2022-08-30T01:08:21.453Z,19.57
2022-08-30T01:11:24.495Z,19.55
2022-08-30T01:14:27.543Z,19.54
2022-08-30T01:17:30.527Z,19.55
2022-08-30T01:20:40.300Z,19.60
2022-08-30T01:23:43.772Z,19.57
2022-08-30T01:26:46.482Z,19.54
2022-08-30T01:29:49.810Z,19.47
2022-08-30T01:32:56.814Z,19.43
2022-08-30T01:36:01.489Z,19.39
2022-08-30T01:39:04.555Z,19.31
2022-08-30T01:42:07.166Z,19.27
2022-08-30T01:45:10.134Z,19.23
2022-08-30T01:48:12.989Z,19.19
2022-08-30T01:51:15.832Z,19.21
2022-08-30T01:54:18.423Z,19.19
2022-08-30T01:57:22.642Z,19.14
2022-08-30T02:00:25.321Z,19.09
2022-08-30T02:03:32.954Z,19.02
2022-08-30T02:06:38.335Z,19.01
2022-08-30T02:09:40.997Z,18.96
2022-08-30T02:12:43.629Z,18.91
2022-08-30T02:15:46.395Z,18.96
2022-08-30T02:18:49.766Z,18.94
2022-08-30T02:21:52.207Z,18.95
2022-08-30T02:24:54.861Z,18.88
2022-08-30T02:27:57.143Z,18.83
2022-08-30T02:31:00.151Z,18.86
2022-08-30T02:34:02.585Z,18.82
2022-08-30T02:37:06.278Z,18.80
2022-08-30T02:40:09.983Z,18.76
2022-08-30T02:43:12.644Z,18.77
2022-08-30T02:46:15.110Z,18.80
2022-08-30T02:49:34.206Z,18.89
2022-08-30T02:52:37.788Z,18.79
2022-08-30T02:55:40.331Z,18.74
2022-08-30T02:58:44.109Z,18.69
2022-08-30T03:01:46.874Z,18.72
2022-08-30T03:04:49.359Z,18.65
2022-08-30T03:07:51.998Z,18.57
2022-08-30T03:10:54.310Z,18.57
2022-08-30T03:13:56.856Z,18.57
2022-08-30T03:16:59.190Z,18.58
2022-08-30T03:20:02.178Z,18.55
2022-08-30T03:23:04.882Z,18.53
2022-08-30T03:26:08.311Z,18.51
2022-08-30T03:29:10.542Z,18.47
2022-08-30T03:32:14.777Z,18.42
2022-08-30T03:35:18.135Z,18.38
2022-08-30T03:38:20.707Z,18.37
2022-08-30T03:41:23.144Z,18.37
2022-08-30T03:44:25.926Z,18.35
2022-08-30T03:47:28.919Z,18.32
2022-08-30T03:50:31.627Z,18.34
2022-08-30T03:53:35.282Z,18.28
2022-08-30T03:56:37.958Z,18.28
2022-08-30T03:59:40.616Z,18.32
2022-08-30T04:02:43.284Z,18.31
2022-08-30T04:05:45.866Z,18.24
2022-08-30T04:08:48.248Z,18.19
2022-08-30T04:11:51.256Z,18.22
2022-08-30T04:14:53.595Z,18.25
2022-08-30T04:17:56.245Z,18.22
2022-08-30T04:20:58.529Z,18.21
2022-08-30T04:24:01.055Z,18.16
2022-08-30T04:27:03.410Z,18.22
2022-08-30T04:30:07.080Z,18.26
2022-08-30T04:33:10.100Z,18.26
2022-08-30T04:36:13.747Z,18.33
2022-08-30T04:39:17.271Z,18.44
2022-08-30T04:42:19.916Z,18.58
2022-08-30T04:45:22.510Z,18.68
2022-08-30T04:48:25.216Z,18.81
2022-08-30T04:51:27.641Z,18.90
2022-08-30T04:54:30.142Z,19.03
2022-08-30T04:57:32.487Z,19.15
2022-08-30T05:00:35.275Z,19.27
2022-08-30T05:03:37.766Z,19.33
2022-08-30T05:06:40.318Z,19.40
2022-08-30T05:09:42.604Z,19.51
2022-08-30T05:12:45.223Z,19.57
2022-08-30T05:15:48.041Z,19.75
2022-08-30T05:18:51.811Z,19.96
2022-08-30T05:21:54.125Z,20.13
2022-08-30T05:24:56.741Z,20.38
2022-08-30T05:27:59.184Z,20.62
2022-08-30T05:31:13.820Z,20.64
2022-08-30T05:34:16.428Z,20.79
2022-08-30T05:37:19.016Z,20.92
2022-08-30T05:40:21.793Z,21.14
2022-08-30T05:43:28.876Z,21.42
2022-08-30T05:46:35.655Z,21.46
2022-08-30T05:49:38.247Z,21.56
2022-08-30T05:52:42.338Z,21.95
2022-08-30T05:55:44.927Z,22.16
2022-08-30T05:58:47.275Z,22.23
2022-08-30T06:01:56.217Z,22.23
2022-08-30T06:04:58.901Z,22.29
2022-08-30T06:08:01.311Z,22.24
2022-08-30T06:11:03.932Z,22.11
2022-08-30T06:14:06.407Z,21.95
2022-08-30T06:17:09.228Z,21.91
2022-08-30T06:20:12.150Z,22.07
2022-08-30T06:23:17.616Z,22.76
2022-08-30T06:26:20.075Z,23.55
2022-08-30T06:29:24.225Z,24.16
2022-08-30T06:32:26.609Z,24.34
2022-08-30T06:35:32.599Z,24.51
2022-08-30T06:38:38.167Z,24.67
2022-08-30T06:41:41.636Z,25.13
2022-08-30T06:44:45.764Z,25.27
2022-08-30T06:47:48.580Z,25.23
2022-08-30T06:50:54.563Z,24.99
2022-08-30T06:53:57.342Z,25.08
2022-08-30T06:56:59.578Z,25.25
2022-08-30T07:00:02.709Z,25.26
2022-08-30T07:03:04.987Z,25.77
2022-08-30T07:06:07.914Z,25.52
2022-08-30T07:09:10.201Z,25.51
2022-08-30T07:12:13.876Z,25.44
2022-08-30T07:15:16.612Z,24.88
2022-08-30T07:18:37.647Z,24.08
2022-08-30T07:21:43.724Z,23.87
2022-08-30T07:24:46.468Z,24.89
2022-08-30T07:27:51.852Z,26.63
2022-08-30T07:30:54.479Z,29.06
2022-08-30T07:33:56.950Z,33.90
2022-08-30T07:36:59.733Z,35.87
2022-08-30T07:40:02.708Z,37.37
2022-08-30T07:43:05.310Z,40.06
2022-08-30T07:46:08.271Z,38.99
2022-08-30T07:49:12.425Z,35.02
2022-08-30T07:52:14.938Z,32.20
2022-08-30T07:55:17.527Z,29.76
2022-08-30T07:58:19.944Z,29.49
2022-08-30T08:01:22.927Z,29.00
2022-08-30T08:04:25.903Z,28.24
2022-08-30T08:07:28.262Z,27.76
2022-08-30T08:10:30.865Z,27.91
2022-08-30T08:13:33.147Z,27.45
2022-08-30T08:16:50.707Z,27.49
2022-08-30T08:19:53.171Z,27.32
2022-08-30T08:22:55.851Z,27.11
2022-08-30T08:25:58.255Z,27.13
2022-08-30T08:29:01.038Z,27.21
2022-08-30T08:32:03.540Z,27.42
2022-08-30T08:35:06.610Z,27.49
2022-08-30T08:38:11.010Z,27.31
2022-08-30T08:41:13.662Z,27.32
2022-08-30T08:44:21.874Z,26.93
2022-08-30T08:47:35.668Z,27.16
2022-08-30T08:51:00.702Z,27.67
2022-08-30T08:54:11.392Z,27.87
2022-08-30T08:57:16.495Z,27.74
2022-08-30T09:00:19.879Z,27.12
2022-08-30T09:03:23.010Z,26.86
2022-08-30T09:06:28.700Z,27.09
2022-08-30T09:09:35.806Z,27.58
2022-08-30T09:12:38.402Z,27.91
2022-08-30T09:15:41.518Z,28.16
2022-08-30T09:18:46.893Z,28.68
2022-08-30T09:22:00.338Z,28.60
2022-08-30T09:25:06.353Z,28.76
2022-08-30T09:28:10.930Z,29.16
2022-08-30T09:31:24.316Z,29.40
2022-08-30T09:34:32.604Z,29.94
2022-08-30T09:37:40.432Z,29.81
2022-08-30T09:40:44.413Z,29.58
2022-08-30T09:44:03.359Z,29.55
2022-08-30T09:47:22.116Z,29.87
2022-08-30T09:50:33.075Z,30.11
2022-08-30T09:53:38.706Z,30.28
2022-08-30T09:56:49.960Z,30.08
2022-08-30T09:59:52.479Z,29.50
2022-08-30T10:03:04.424Z,29.54
2022-08-30T10:06:07.217Z,29.56
2022-08-30T10:09:29.762Z,28.46
2022-08-30T10:12:42.256Z,27.91
2022-08-30T10:16:07.816Z,27.77
2022-08-30T10:19:29.769Z,27.91
2022-08-30T10:22:55.806Z,28.39
2022-08-30T10:26:07.461Z,27.94
2022-08-30T10:29:12.831Z,27.95
2022-08-30T10:32:19.065Z,28.05
2022-08-30T10:35:22.405Z,28.26
2022-08-30T10:38:31.188Z,28.71
2022-08-30T10:41:42.432Z,29.05
2022-08-30T10:44:47.998Z,28.53
2022-08-30T10:47:53.485Z,28.05
2022-08-30T10:50:59.124Z,28.41
2022-08-30T10:54:09.898Z,28.82
2022-08-30T10:57:12.985Z,28.88
2022-08-30T11:00:22.526Z,28.88
2022-08-30T11:03:25.217Z,28.90
2022-08-30T11:06:30.650Z,28.73
2022-08-30T11:09:42.551Z,28.60
2022-08-30T11:13:00.834Z,28.83
2022-08-30T11:16:08.240Z,29.31
2022-08-30T11:19:34.676Z,29.44
2022-08-30T11:22:39.255Z,29.66
2022-08-30T11:25:58.037Z,29.68
2022-08-30T11:29:02.450Z,29.75
2022-08-30T11:32:15.843Z,29.86
2022-08-30T11:35:38.786Z,29.99
2022-08-30T11:38:41.206Z,29.71
2022-08-30T11:41:47.719Z,29.83
2022-08-30T11:44:50.460Z,29.95
2022-08-30T11:47:53.358Z,29.72
2022-08-30T11:51:08.203Z,29.71
2022-08-30T11:54:16.805Z,30.07
2022-08-30T11:57:38.383Z,29.96
2022-08-30T12:00:50.322Z,29.43
2022-08-30T12:03:58.345Z,29.36
2022-08-30T12:07:06.427Z,29.76
2022-08-30T12:10:20.844Z,29.69
2022-08-30T12:13:35.801Z,29.51
2022-08-30T12:17:02.475Z,30.05
2022-08-30T12:20:05.817Z,30.27
2022-08-30T12:23:23.709Z,30.34
2022-08-30T12:26:26.389Z,30.48
2022-08-30T12:29:30.668Z,30.38
2022-08-30T12:32:33.551Z,30.14
2022-08-30T12:35:36.145Z,30.12
2022-08-30T12:38:38.730Z,29.78
2022-08-30T12:41:43.695Z,29.82
2022-08-30T12:44:47.849Z,30.03
2022-08-30T12:47:52.835Z,30.01
2022-08-30T12:50:56.635Z,30.00
2022-08-30T12:54:05.931Z,29.95
2022-08-30T12:57:25.323Z,29.98
2022-08-30T13:00:41.566Z,29.94
2022-08-30T13:03:53.813Z,29.82
2022-08-30T13:07:06.323Z,29.95
2022-08-30T13:10:13.517Z,29.30
2022-08-30T13:13:26.999Z,29.32
2022-08-30T13:16:35.912Z,29.56
2022-08-30T13:19:41.484Z,29.47
2022-08-30T13:23:02.386Z,28.47
2022-08-30T13:26:06.633Z,28.07
2022-08-30T13:29:14.900Z,27.88
2022-08-30T13:32:17.832Z,27.84
2022-08-30T13:35:20.160Z,28.22
2022-08-30T13:38:22.793Z,28.38
2022-08-30T13:41:26.087Z,28.26
2022-08-30T13:44:33.057Z,27.83
2022-08-30T13:47:37.059Z,27.39
2022-08-30T13:50:40.019Z,27.16
2022-08-30T13:53:58.093Z,27.03
2022-08-30T13:57:02.118Z,26.82
2022-08-30T14:00:05.801Z,26.62
2022-08-30T14:03:15.108Z,26.58
2022-08-30T14:06:32.678Z,27.05
2022-08-30T14:09:36.852Z,27.54
2022-08-30T14:13:00.561Z,27.99
2022-08-30T14:19:26.871Z,27.73
2022-08-30T14:22:29.246Z,27.37
2022-08-30T14:25:32.000Z,27.16
2022-08-30T14:28:34.336Z,27.03
2022-08-30T14:31:39.474Z,27.21
2022-08-30T14:34:41.832Z,27.04
2022-08-30T14:37:45.099Z,26.98
2022-08-30T14:40:47.655Z,26.97
2022-08-30T14:43:50.885Z,26.84
2022-08-30T14:46:53.350Z,26.72
2022-08-30T14:49:59.002Z,26.55
2022-08-30T14:53:01.281Z,26.46
2022-08-30T14:56:11.441Z,26.32
2022-08-30T14:59:14.119Z,26.30
2022-08-30T15:02:17.233Z,26.35
2022-08-30T15:05:19.779Z,26.50
2022-08-30T15:08:23.011Z,26.52
2022-08-30T15:11:27.457Z,26.63
2022-08-30T15:14:32.780Z,26.82
2022-08-30T15:17:35.184Z,26.92
2022-08-30T15:20:44.325Z,27.13
2022-08-30T15:23:47.879Z,27.26
2022-08-30T15:26:51.418Z,27.37
2022-08-30T15:29:53.757Z,27.29
2022-08-30T15:32:56.410Z,27.21
2022-08-30T15:36:02.070Z,27.02
2022-08-30T15:39:07.563Z,26.87
2022-08-30T15:42:16.325Z,26.80
2022-08-30T15:45:21.691Z,26.89
2022-08-30T15:48:24.382Z,26.81
2022-08-30T15:51:27.802Z,26.93
2022-08-30T15:54:30.460Z,26.91
2022-08-30T15:57:33.066Z,27.05
2022-08-30T16:00:35.498Z,27.28
2022-08-30T16:03:42.558Z,27.47
2022-08-30T16:06:45.038Z,27.69
2022-08-30T16:09:47.694Z,27.70
2022-08-30T16:12:50.188Z,27.59
2022-08-30T16:15:52.770Z,27.58
2022-08-30T16:18:55.407Z,27.60
2022-08-30T16:21:58.531Z,27.54
2022-08-30T16:25:00.902Z,27.50
2022-08-30T16:28:04.262Z,27.32
2022-08-30T16:31:07.783Z,27.25
2022-08-30T16:34:11.254Z,27.21
2022-08-30T16:37:13.601Z,27.14
2022-08-30T16:40:16.230Z,27.14
2022-08-30T16:43:19.751Z,27.08
2022-08-30T16:46:27.664Z,27.01
2022-08-30T16:49:30.381Z,26.88
2022-08-30T16:52:32.984Z,26.75
2022-08-30T16:55:36.417Z,26.63
2022-08-30T16:58:39.119Z,26.47
2022-08-30T17:01:43.365Z,26.33
2022-08-30T17:04:52.332Z,26.36
2022-08-30T17:07:55.432Z,26.29
2022-08-30T17:10:58.417Z,26.27
2022-08-30T17:14:01.585Z,26.22
2022-08-30T17:17:04.343Z,26.13
2022-08-30T17:20:09.106Z,26.05
2022-08-30T17:23:11.688Z,25.98
2022-08-30T17:26:14.088Z,25.86
2022-08-30T17:29:16.703Z,25.67
2022-08-30T17:32:19.209Z,25.48
2022-08-30T17:35:22.287Z,25.32
2022-08-30T17:38:24.673Z,25.21
2022-08-30T17:41:28.020Z,25.10
2022-08-30T17:44:31.673Z,24.92
2022-08-30T17:47:36.528Z,24.80
2022-08-30T17:50:39.233Z,24.73
2022-08-30T17:53:41.883Z,24.60
2022-08-30T17:56:44.223Z,24.49
2022-08-30T17:59:46.875Z,24.37
2022-08-30T18:02:49.768Z,24.28
2022-08-30T18:05:52.735Z,24.26
2022-08-30T18:08:55.148Z,24.08
2022-08-30T18:11:59.235Z,23.99
2022-08-30T18:15:02.853Z,23.94
2022-08-30T18:18:15.524Z,23.88
2022-08-30T18:21:19.559Z,23.83
2022-08-30T18:24:25.982Z,23.72
2022-08-30T18:27:28.323Z,23.58
2022-08-30T18:30:34.610Z,23.50
2022-08-30T18:33:42.519Z,23.37
2022-08-30T18:36:46.329Z,23.22
2022-08-30T18:39:48.867Z,23.12
2022-08-30T18:42:53.005Z,23.03
2022-08-30T18:45:55.876Z,22.95
2022-08-30T18:49:00.186Z,22.87
2022-08-30T18:52:03.845Z,22.87
2022-08-30T18:55:07.028Z,22.89
2022-08-30T18:58:11.044Z,22.87
2022-08-30T19:01:15.697Z,22.87
2022-08-30T19:04:29.503Z,22.83
2022-08-30T19:07:38.060Z,22.90
2022-08-30T19:10:42.217Z,22.80
2022-08-30T19:13:45.826Z,22.72
2022-08-30T19:16:48.609Z,22.72
2022-08-30T19:19:52.413Z,22.73
2022-08-30T19:23:09.759Z,22.66
2022-08-30T19:26:13.208Z,22.57
2022-08-30T19:29:15.661Z,22.60
2022-08-30T19:32:19.223Z,22.53
2022-08-30T19:35:22.174Z,22.48
2022-08-30T19:38:26.308Z,22.30
2022-08-30T19:41:29.581Z,22.19
2022-08-30T19:44:32.208Z,22.10
2022-08-30T19:47:38.989Z,22.03
2022-08-30T19:50:41.745Z,21.95
2022-08-30T19:53:44.328Z,21.93
2022-08-30T19:56:46.959Z,21.94
2022-08-30T19:59:50.549Z,21.88
2022-08-30T20:02:53.264Z,21.81
2022-08-30T20:05:57.189Z,21.71
2022-08-30T20:09:00.532Z,21.65
2022-08-30T20:12:04.021Z,21.80
2022-08-30T20:15:10.392Z,21.73
2022-08-30T20:18:14.842Z,21.68
2022-08-30T20:21:17.257Z,21.60
2022-08-30T20:24:20.422Z,21.52
2022-08-30T20:27:23.988Z,21.50
2022-08-30T20:30:27.364Z,21.41
2022-08-30T20:33:29.748Z,21.36
2022-08-30T20:36:33.678Z,21.34
2022-08-30T20:39:36.761Z,21.28
2022-08-30T20:42:41.576Z,21.18
2022-08-30T20:45:44.299Z,21.12
2022-08-30T20:48:47.170Z,21.12
2022-08-30T20:51:54.213Z,21.04
2022-08-30T20:54:57.221Z,20.96
2022-08-30T20:57:59.595Z,20.93
2022-08-30T21:01:02.276Z,20.94
2022-08-30T21:04:05.465Z,20.93
2022-08-30T21:07:08.041Z,20.88
2022-08-30T21:10:10.634Z,20.85
2022-08-30T21:13:13.196Z,20.82
2022-08-30T21:16:16.885Z,20.77
2022-08-30T21:19:24.842Z,20.76
2022-08-30T21:22:27.222Z,20.74
2022-08-30T21:25:33.106Z,20.70
2022-08-30T21:28:35.843Z,20.69
2022-08-30T21:31:38.386Z,20.63
2022-08-30T21:34:59.301Z,20.55
2022-08-30T21:38:04.325Z,20.51
2022-08-30T21:41:06.588Z,20.44
2022-08-30T21:44:11.281Z,20.39
2022-08-30T21:47:13.821Z,20.38
2022-08-30T21:50:25.916Z,20.23
2022-08-30T21:53:28.208Z,20.16
2022-08-30T21:56:30.865Z,20.13
2022-08-30T21:59:33.305Z,20.14
2022-08-30T22:02:35.872Z,20.10
2022-08-30T22:05:38.552Z,20.03
2022-08-30T22:08:42.674Z,19.98
2022-08-30T22:11:45.864Z,19.92
2022-08-30T22:14:48.130Z,19.93
2022-08-30T22:17:50.741Z,19.90
2022-08-30T22:20:52.998Z,19.86
2022-08-30T22:23:56.778Z,19.86
2022-08-30T22:26:59.647Z,19.89
2022-08-30T22:30:02.332Z,19.90
2022-08-30T22:33:04.774Z,19.89
2022-08-30T22:36:07.417Z,19.92
2022-08-30T22:39:09.760Z,19.94
2022-08-30T22:42:13.397Z,19.93
2022-08-30T22:45:15.774Z,19.89
2022-08-30T22:48:18.351Z,20.07
2022-08-30T22:51:21.444Z,20.20
2022-08-30T22:54:24.086Z,20.27
2022-08-30T22:57:27.229Z,20.33
2022-08-30T23:00:30.338Z,20.35
2022-08-30T23:03:35.945Z,20.38
2022-08-30T23:06:39.012Z,20.44
2022-08-30T23:09:41.337Z,20.37
2022-08-30T23:12:44.042Z,20.25
2022-08-30T23:15:46.313Z,20.16
2022-08-30T23:18:48.923Z,20.12
2022-08-30T23:21:51.371Z,20.07
2022-08-30T23:25:14.908Z,20.03
2022-08-30T23:28:37.890Z,19.96
2022-08-30T23:31:59.397Z,19.80
2022-08-30T23:35:20.258Z,19.67
2022-08-30T23:38:46.683Z,19.61
2022-08-30T23:42:07.628Z,19.48
2022-08-30T23:45:28.935Z,19.35
2022-08-30T23:48:52.192Z,19.39
2022-08-30T23:52:13.790Z,19.33
2022-08-30T23:55:34.650Z,19.28
2022-08-30T23:58:56.063Z,19.13
